Time;durP1;ratioP1;P1;durP2;ratioP2;P2;SDS_P1;SDS_P2;PMS_P1;PMS_P2;Temp;Humidity;BMP_temperature;BMP_pressure;BME280_temperature;BME280_humidity;BME280_pressure;Samples;Min_cycle;Max_cycle;Signal;HPM_P1;HPM_P2
2021/12/06 00:01:04;;;;;;;2.23;2.03;;;;;;;4.66;88.17;95441.16;5036731;28;20228;-67
2021/12/06 00:03:39;;;;;;;2.87;2.00;;;;;;;4.70;88.15;95437.25;5036523;28;20221;-67
2021/12/06 00:06:06;;;;;;;2.57;2.00;;;;;;;4.56;87.42;95432.66;5037368;28;20580;-68
2021/12/06 00:08:33;;;;;;;2.13;1.67;;;;;;;4.51;87.59;95436.72;5036855;28;20575;-68
2021/12/06 00:11:06;;;;;;;2.97;1.80;;;;;;;4.43;88.12;95441.91;5037202;28;20861;-67
2021/12/06 00:13:35;;;;;;;3.10;1.57;;;;;;;4.32;88.71;95437.00;5036180;28;20197;-68
2021/12/06 00:16:05;;;;;;;3.40;2.13;;;;;;;4.40;88.71;95440.44;5036772;28;20233;-68
2021/12/06 00:18:32;;;;;;;2.70;1.93;;;;;;;4.46;88.25;95441.59;5037263;28;20229;-67
2021/12/06 00:21:00;;;;;;;7.20;2.80;;;;;;;4.82;88.14;95435.13;5036600;28;20225;-67
2021/12/06 00:23:28;;;;;;;2.20;1.37;;;;;;;4.66;87.92;95440.31;5035717;28;20787;-67
2021/12/06 00:25:54;;;;;;;4.53;2.90;;;;;;;4.59;88.13;95449.78;5036527;28;20751;-68
2021/12/06 00:28:21;;;;;;;3.50;2.07;;;;;;;4.36;88.86;95449.53;5036954;28;20197;-67
2021/12/06 00:30:47;;;;;;;4.10;2.50;;;;;;;4.51;88.35;95447.16;5037067;28;20225;-67
2021/12/06 00:33:14;;;;;;;3.13;1.13;;;;;;;4.55;88.66;95453.69;5036256;28;20204;-66
2021/12/06 00:35:40;;;;;;;2.87;1.33;;;;;;;4.60;88.36;95454.03;5036745;28;20271;-67
2021/12/06 00:38:08;;;;;;;4.27;2.73;;;;;;;4.84;88.31;95455.69;5035977;28;20592;-68
2021/12/06 00:40:39;;;;;;;4.93;2.20;;;;;;;4.83;88.73;95461.88;5036763;28;20224;-67
2021/12/06 00:43:06;;;;;;;4.37;1.90;;;;;;;4.62;89.51;95467.72;5035608;28;20236;-68
2021/12/06 00:45:34;;;;;;;2.80;2.10;;;;;;;4.38;90.75;95467.66;5033381;28;20200;-67
2021/12/06 00:48:01;;;;;;;6.53;2.50;;;;;;;4.57;90.27;95459.53;5036676;28;20207;-68
2021/12/06 00:50:31;;;;;;;3.47;3.17;;;;;;;4.90;89.12;95457.66;5036245;28;20260;-67
2021/12/06 00:52:58;;;;;;;4.10;2.47;;;;;;;4.79;89.01;95451.94;5035473;28;20214;-68
2021/12/06 00:55:26;;;;;;;13.37;2.57;;;;;;;4.84;89.44;95460.91;5036459;28;20201;-67
2021/12/06 00:57:53;;;;;;;3.27;2.47;;;;;;;4.59;89.85;95462.81;5036760;28;20201;-68
2021/12/06 01:00:24;;;;;;;5.23;2.17;;;;;;;4.25;92.30;95477.69;5036240;28;20787;-68
2021/12/06 01:02:51;;;;;;;5.70;3.20;;;;;;;3.95;94.14;95480.84;5035756;28;20200;-68
2021/12/06 01:05:18;;;;;;;4.17;2.60;;;;;;;4.24;92.98;95486.53;5036639;28;20208;-67
2021/12/06 01:07:44;;;;;;;5.33;3.07;;;;;;;4.39;91.92;95488.38;5036148;28;20240;-68
2021/12/06 01:10:11;;;;;;;6.20;2.87;;;;;;;4.50;91.39;95495.06;5036044;28;20803;-68
2021/12/06 01:12:39;;;;;;;4.03;2.17;;;;;;;4.59;91.76;95494.13;5035822;28;20208;-67
2021/12/06 01:15:06;;;;;;;6.40;3.47;;;;;;;4.54;91.89;95501.59;5036507;28;20208;-67
2021/12/06 01:17:33;;;;;;;7.30;3.40;;;;;;;4.22;92.78;95509.31;5036102;28;20205;-67
2021/12/06 01:20:00;;;;;;;7.60;4.93;;;;;;;4.25;93.27;95511.59;5036500;28;20212;-68
2021/12/06 01:22:31;;;;;;;7.07;3.47;;;;;;;4.10;93.12;95514.94;5035390;28;20204;-68
2021/12/06 01:25:02;;;;;;;4.40;2.80;;;;;;;4.22;92.97;95515.31;5036184;28;20217;-67
2021/12/06 01:27:42;;;;;;;8.07;3.80;;;;;;;4.30;92.72;95517.16;5036489;28;20218;-68
2021/12/06 01:30:27;;;;;;;3.37;1.50;;;;;;;4.72;92.09;95517.97;5036124;28;20498;-68
2021/12/06 01:41:08;;;;;;;4.07;2.03;;;;;;;4.46;92.16;95532.88;5035551;28;20324;-67
2021/12/06 01:43:35;;;;;;;3.43;3.13;;;;;;;4.36;92.49;95529.59;5035282;28;20634;-68
2021/12/06 01:46:03;;;;;;;9.27;3.63;;;;;;;4.65;92.55;95532.63;5032637;28;20209;-68
2021/12/06 01:48:29;;;;;;;10.10;4.07;;;;;;;4.45;92.32;95542.50;5035798;28;20769;-66
2021/12/06 01:50:56;;;;;;;5.90;2.90;;;;;;;4.49;92.02;95532.56;5037983;28;20221;-68
2021/12/06 01:53:22;;;;;;;11.67;3.80;;;;;;;4.39;92.39;95534.47;5039553;28;20197;-67
2021/12/06 01:55:49;;;;;;;5.57;2.40;;;;;;;4.24;93.10;95543.88;5039220;28;20209;-68
2021/12/06 01:58:15;;;;;;;8.53;3.67;;;;;;;4.34;92.65;95544.56;5039218;28;20212;-68
2021/12/06 02:00:46;;;;;;;5.77;3.53;;;;;;;4.77;92.14;95542.59;5039481;28;20225;-67
2021/12/06 02:03:14;;;;;;;17.40;3.83;;;;;;;4.82;91.35;95535.97;5038159;28;20677;-67
2021/12/06 02:05:43;;;;;;;7.83;3.00;;;;;;;4.59;91.96;95543.69;5039027;28;20664;-68
2021/12/06 02:08:10;;;;;;;6.33;3.50;;;;;;;4.38;92.01;95540.69;5039753;28;20282;-68
2021/12/06 02:10:38;;;;;;;6.73;4.30;;;;;;;4.52;92.96;95535.69;5039051;28;20232;-68
2021/12/06 02:13:06;;;;;;;12.87;2.73;;;;;;;4.36;92.85;95547.84;5038874;28;20209;-68
2021/12/06 02:15:41;;;;;;;6.27;3.83;;;;;;;4.51;92.01;95541.88;5039489;28;20212;-66
2021/12/06 02:18:13;;;;;;;6.37;2.80;;;;;;;4.53;92.63;95539.09;5038867;28;20251;-67
2021/12/06 02:20:47;;;;;;;5.73;2.57;;;;;;;4.59;92.34;95539.28;5039120;28;20228;-68
2021/12/06 02:23:16;;;;;;;4.40;3.27;;;;;;;4.58;92.76;95537.66;5039126;28;20211;-67
2021/12/06 02:25:43;;;;;;;7.80;4.27;;;;;;;4.19;92.55;95540.91;5038630;28;20685;-68
2021/12/06 02:28:09;;;;;;;5.70;2.73;;;;;;;4.26;92.77;95542.75;5038763;28;21515;-68
2021/12/06 02:30:36;;;;;;;5.87;2.97;;;;;;;4.25;93.18;95542.88;5038841;28;20729;-67
2021/12/06 02:33:03;;;;;;;6.27;2.57;;;;;;;4.28;92.90;95540.78;5037922;28;20209;-68
2021/12/06 02:35:30;;;;;;;10.07;3.97;;;;;;;4.15;93.66;95543.97;5038697;28;20201;-66
2021/12/06 02:37:57;;;;;;;5.67;2.50;;;;;;;4.23;93.61;95545.66;5038897;28;20215;-67
2021/12/06 02:40:28;;;;;;;5.17;3.40;;;;;;;4.31;93.28;95544.88;5038797;28;20235;-67
2021/12/06 02:42:56;;;;;;;3.27;2.60;;;;;;;4.37;93.13;95549.47;5037674;28;20200;-67
2021/12/06 02:45:25;;;;;;;11.33;4.40;;;;;;;3.98;94.11;95550.06;5035258;28;20227;-67
2021/12/06 02:47:53;;;;;;;8.60;3.03;;;;;;;4.15;92.85;95555.25;5038349;28;20281;-66
2021/12/06 02:50:22;;;;;;;5.00;2.37;;;;;;;4.36;93.26;95555.66;5038476;28;20229;-67
2021/12/06 02:52:49;;;;;;;5.63;2.60;;;;;;;4.23;92.84;95555.28;5038237;28;20209;-67
2021/12/06 02:55:30;;;;;;;7.00;3.13;;;;;;;4.27;92.42;95554.00;5038150;28;20756;-66
2021/12/06 02:57:59;;;;;;;4.87;2.53;;;;;;;4.37;93.06;95557.31;5038187;28;20197;-67
2021/12/06 03:00:27;;;;;;;3.57;2.53;;;;;;;4.26;93.00;95562.78;5037654;28;20345;-67
2021/12/06 03:02:54;;;;;;;4.17;3.03;;;;;;;4.27;93.24;95559.19;5037616;28;20686;-67
2021/12/06 03:05:20;;;;;;;7.40;3.67;;;;;;;3.78;94.00;95567.72;5038005;28;20232;-67
2021/12/06 03:07:52;;;;;;;6.07;2.67;;;;;;;3.72;94.70;95565.69;5038301;28;20212;-67
2021/12/06 03:10:19;;;;;;;5.63;3.30;;;;;;;3.65;95.65;95566.44;5038240;28;20236;-67
2021/12/06 03:12:45;;;;;;;5.60;4.03;;;;;;;3.58;95.59;95569.81;5036969;28;20616;-67
2021/12/06 03:15:16;;;;;;;6.20;4.47;;;;;;;3.77;95.52;95565.25;5037777;28;20196;-67
2021/12/06 03:17:42;;;;;;;4.17;3.13;;;;;;;3.62;95.49;95567.56;5038087;28;20201;-67
2021/12/06 03:20:13;;;;;;;10.47;4.10;;;;;;;3.88;95.35;95573.66;5038566;28;20225;-67
2021/12/06 03:22:40;;;;;;;6.37;2.63;;;;;;;3.65;95.28;95569.06;5036895;28;20299;-67
2021/12/06 03:25:08;;;;;;;9.97;4.27;;;;;;;3.76;95.36;95568.81;5038132;28;20221;-68
2021/12/06 03:27:35;;;;;;;4.60;2.50;;;;;;;3.35;96.23;95579.09;5037368;28;20211;-67
2021/12/06 03:30:01;;;;;;;6.67;2.47;;;;;;;3.72;95.23;95583.13;5037753;28;20228;-66
2021/12/06 03:32:29;;;;;;;11.13;4.07;;;;;;;4.08;94.77;95582.88;5037592;28;20217;-67
2021/12/06 03:34:55;;;;;;;5.03;4.17;;;;;;;3.78;94.74;95588.56;5038676;28;20216;-67
2021/12/06 03:37:22;;;;;;;9.60;4.30;;;;;;;3.96;93.93;95591.09;5037502;28;20204;-67
2021/12/06 03:39:50;;;;;;;5.80;3.53;;;;;;;4.25;93.02;95584.59;5037701;28;20229;-67
2021/12/06 03:42:19;;;;;;;4.97;3.53;;;;;;;4.10;93.26;95599.19;5037068;28;20207;-67
2021/12/06 03:44:46;;;;;;;8.10;3.27;;;;;;;4.06;92.70;95603.09;5031939;28;20223;-68
2021/12/06 03:47:15;;;;;;;4.87;2.70;;;;;;;4.27;92.88;95606.13;5036745;28;20204;-67
2021/12/06 03:49:44;;;;;;;3.63;2.63;;;;;;;4.25;92.30;95614.13;5037382;28;20293;-67
2021/12/06 03:52:12;;;;;;;9.37;3.67;;;;;;;4.17;92.60;95610.63;5036919;28;20775;-67
2021/12/06 03:54:39;;;;;;;5.73;3.77;;;;;;;3.94;92.85;95614.72;5037582;28;20208;-67
2021/12/06 03:57:06;;;;;;;4.63;3.03;;;;;;;4.23;92.68;95617.84;5037730;28;20205;-68
2021/12/06 03:59:34;;;;;;;4.40;3.60;;;;;;;4.18;92.36;95614.88;5037428;28;20206;-68
2021/12/06 04:02:00;;;;;;;3.97;2.63;;;;;;;4.17;91.86;95617.66;5037069;28;20223;-68
2021/12/06 04:04:27;;;;;;;3.37;2.70;;;;;;;4.25;91.69;95621.94;5036628;28;20249;-67
2021/12/06 04:06:55;;;;;;;4.07;1.97;;;;;;;4.44;91.69;95619.13;5037317;28;20217;-67
2021/12/06 04:09:22;;;;;;;10.37;2.97;;;;;;;4.04;92.04;95625.88;5037002;28;20198;-68
2021/12/06 04:11:50;;;;;;;2.73;2.10;;;;;;;4.01;92.38;95623.56;5037376;28;20225;-67
2021/12/06 04:14:16;;;;;;;7.87;3.00;;;;;;;3.96;92.19;95633.63;5036229;28;20554;-67
2021/12/06 04:16:44;;;;;;;9.27;4.23;;;;;;;3.96;93.03;95628.44;5036991;28;20206;-67
2021/12/06 04:19:11;;;;;;;5.47;3.10;;;;;;;4.12;92.55;95632.94;5036938;28;20204;-67
2021/12/06 04:21:42;;;;;;;3.97;2.50;;;;;;;4.17;92.22;95631.50;5037175;28;20223;-68
2021/12/06 04:24:11;;;;;;;5.57;3.30;;;;;;;4.05;93.40;95630.13;5036053;28;20610;-67
2021/12/06 04:26:38;;;;;;;4.97;2.73;;;;;;;3.70;93.84;95638.00;5034624;28;20283;-67
2021/12/06 04:29:05;;;;;;;9.83;3.97;;;;;;;4.08;92.80;95637.63;5036999;28;20584;-67
2021/12/06 04:31:34;;;;;;;3.47;2.17;;;;;;;4.27;93.00;95640.03;5037316;28;20732;-66
2021/12/06 04:34:01;;;;;;;3.93;2.53;;;;;;;3.89;93.47;95655.22;5036340;28;20964;-67
2021/12/06 04:36:27;;;;;;;6.30;4.07;;;;;;;4.08;92.48;95658.47;5036707;28;21107;-68
2021/12/06 04:38:54;;;;;;;5.30;2.43;;;;;;;3.98;92.71;95662.16;5037097;28;20572;-68
2021/12/06 04:41:22;;;;;;;5.50;3.20;;;;;;;4.11;93.16;95658.19;5037197;28;20322;-67
2021/12/06 04:43:49;;;;;;;3.40;2.50;;;;;;;3.93;92.52;95665.19;5035504;28;20673;-67
2021/12/06 04:46:16;;;;;;;5.13;3.07;;;;;;;3.99;92.45;95659.38;5033230;28;20700;-67
2021/12/06 04:48:43;;;;;;;7.20;3.70;;;;;;;4.10;91.95;95676.56;5037633;28;20980;-67
2021/12/06 04:51:09;;;;;;;12.63;5.03;;;;;;;4.04;92.10;95678.00;5036258;28;20744;-68
2021/12/06 04:53:40;;;;;;;11.97;3.37;;;;;;;4.31;91.95;95676.06;5035691;28;20200;-68
2021/12/06 04:56:12;;;;;;;9.30;2.90;;;;;;;4.40;92.18;95690.00;5036629;28;20201;-68
2021/12/06 04:58:50;;;;;;;6.33;3.50;;;;;;;4.40;91.78;95690.84;5036429;28;20209;-67
2021/12/06 05:01:19;;;;;;;7.37;3.10;;;;;;;4.41;91.81;95696.84;5036849;28;20220;-68
2021/12/06 05:03:46;;;;;;;5.53;3.03;;;;;;;4.31;91.66;95704.75;5035839;28;20197;-68
2021/12/06 05:06:17;;;;;;;7.50;3.63;;;;;;;4.58;91.71;95701.19;5036482;28;20604;-68
2021/12/06 05:08:49;;;;;;;7.37;3.57;;;;;;;4.57;92.01;95703.00;5036267;28;20204;-67
2021/12/06 05:11:18;;;;;;;8.07;4.03;;;;;;;4.42;91.25;95704.53;5036223;28;20231;-67
2021/12/06 05:13:48;;;;;;;12.50;2.80;;;;;;;4.43;91.87;95703.56;5035761;28;20204;-67
2021/12/06 05:16:15;;;;;;;6.67;3.27;;;;;;;4.26;91.70;95703.59;5036367;28;20204;-67
2021/12/06 05:18:41;;;;;;;10.07;2.83;;;;;;;4.19;91.88;95707.78;5036560;28;20208;-68
2021/12/06 05:21:09;;;;;;;11.30;4.77;;;;;;;4.22;91.61;95710.06;5036307;28;20225;-67
2021/12/06 05:23:36;;;;;;;9.80;5.57;;;;;;;4.28;91.61;95709.47;5035527;28;20200;-67
2021/12/06 05:26:02;;;;;;;14.17;4.93;;;;;;;4.30;91.55;95708.34;5040309;28;20956;-66
2021/12/06 05:28:32;;;;;;;5.33;3.07;;;;;;;4.45;91.70;95719.03;5040535;28;20219;-67
2021/12/06 05:31:01;;;;;;;5.33;3.13;;;;;;;4.69;91.33;95722.63;5040067;28;20216;-66
2021/12/06 05:33:31;;;;;;;10.47;4.57;;;;;;;4.58;91.34;95725.50;5039579;28;20204;-67
2021/12/06 05:36:02;;;;;;;14.10;4.27;;;;;;;4.49;91.93;95741.25;5039651;28;20224;-67
2021/12/06 05:38:30;;;;;;;11.97;5.87;;;;;;;4.66;91.24;95743.81;5040142;28;20227;-67
2021/12/06 05:40:57;;;;;;;10.20;3.67;;;;;;;4.41;92.08;95749.03;5039947;28;20224;-68
2021/12/06 05:43:25;;;;;;;8.60;4.70;;;;;;;4.38;92.63;95754.56;5039476;28;20204;-68
2021/12/06 05:45:52;;;;;;;10.03;4.57;;;;;;;4.51;91.82;95754.97;5037233;28;20220;-67
2021/12/06 05:48:20;;;;;;;9.77;4.73;;;;;;;4.64;91.80;95758.78;5039538;28;20695;-67
2021/12/06 05:50:49;;;;;;;8.33;4.10;;;;;;;4.38;92.55;95764.97;5039725;28;20221;-66
2021/12/06 05:53:16;;;;;;;5.43;4.07;;;;;;;4.27;92.71;95767.81;5039003;28;20219;-67
2021/12/06 05:55:44;;;;;;;9.67;4.37;;;;;;;4.30;92.59;95767.50;5039571;28;20200;-67
2021/12/06 05:58:14;;;;;;;2.53;2.33;;;;;;;4.30;93.05;95780.53;5040295;28;20212;-67
2021/12/06 06:00:42;;;;;;;6.23;4.37;;;;;;;3.94;93.70;95786.72;5039805;28;20235;-67
2021/12/06 06:03:09;;;;;;;7.20;5.30;;;;;;;4.03;93.34;95783.22;5038593;28;20222;-67
2021/12/06 06:05:37;;;;;;;5.90;3.77;;;;;;;4.15;94.15;95787.28;5039342;28;20225;-66
2021/12/06 06:08:04;;;;;;;7.77;3.10;;;;;;;4.03;93.57;95790.25;5040773;28;20205;-67
2021/12/06 06:10:31;;;;;;;12.40;4.20;;;;;;;3.94;94.10;95786.72;5039683;28;20236;-67
2021/12/06 06:12:59;;;;;;;6.73;4.67;;;;;;;4.22;93.63;95794.31;5038264;28;20208;-67
2021/12/06 06:15:26;;;;;;;10.57;3.77;;;;;;;4.14;93.55;95795.22;5039728;28;20201;-67
2021/12/06 06:17:52;;;;;;;9.17;3.43;;;;;;;4.12;93.38;95802.38;5039447;28;20619;-67
2021/12/06 06:20:22;;;;;;;7.87;4.60;;;;;;;4.24;93.67;95794.19;5039037;28;20231;-66
2021/12/06 06:22:50;;;;;;;12.10;6.93;;;;;;;4.35;93.57;95801.78;5038860;28;20210;-67
2021/12/06 06:25:16;;;;;;;12.27;4.97;;;;;;;4.16;93.43;95799.31;5039164;28;20682;-66
2021/12/06 06:27:43;;;;;;;13.10;4.23;;;;;;;4.19;93.92;95800.81;5039319;28;20200;-66
2021/12/06 06:30:11;;;;;;;7.93;4.07;;;;;;;4.19;93.74;95806.84;5039287;28;20244;-66
2021/12/06 06:32:37;;;;;;;7.53;4.00;;;;;;;4.05;94.63;95809.13;5038514;28;20200;-66
2021/12/06 06:35:05;;;;;;;9.60;4.23;;;;;;;4.26;93.82;95811.34;5038877;28;20197;-66
2021/12/06 06:37:32;;;;;;;5.17;3.73;;;;;;;4.21;93.50;95817.13;5038627;28;20206;-66
2021/12/06 06:40:00;;;;;;;13.87;5.13;;;;;;;4.34;94.00;95823.59;5038867;28;20209;-66
2021/12/06 06:42:27;;;;;;;13.37;4.67;;;;;;;3.98;94.09;95834.97;5038150;28;20212;-66
2021/12/06 06:44:56;;;;;;;12.73;4.03;;;;;;;4.33;93.97;95833.22;5036582;28;20229;-66
2021/12/06 06:47:24;;;;;;;10.00;4.13;;;;;;;4.28;93.65;95843.28;5038835;28;20218;-67
2021/12/06 06:49:50;;;;;;;8.07;4.00;;;;;;;3.87;94.65;95848.22;5038580;28;20205;-66
2021/12/06 06:52:17;;;;;;;12.17;4.13;;;;;;;4.02;94.49;95852.00;5038300;28;20208;-67
2021/12/06 06:54:44;;;;;;;9.80;4.57;;;;;;;4.14;94.51;95856.03;5038815;28;20200;-66
2021/12/06 06:57:12;;;;;;;13.07;5.90;;;;;;;4.12;94.70;95852.72;5038458;28;20200;-66
2021/12/06 06:59:39;;;;;;;11.97;4.63;;;;;;;4.13;93.82;95856.97;5038750;28;20201;-66
2021/12/06 07:02:06;;;;;;;20.07;6.80;;;;;;;4.15;94.01;95857.66;5035909;28;20323;-66
2021/12/06 07:04:32;;;;;;;20.07;8.90;;;;;;;4.21;93.62;95858.84;5037739;28;20208;-66
2021/12/06 07:06:59;;;;;;;12.50;5.63;;;;;;;4.23;93.52;95860.34;5037847;28;20205;-67
2021/12/06 07:09:26;;;;;;;8.97;4.87;;;;;;;4.36;93.42;95855.59;5037907;28;20255;-66
2021/12/06 07:11:53;;;;;;;10.60;6.07;;;;;;;4.55;92.58;95858.03;5037880;28;20583;-67
2021/12/06 07:14:21;;;;;;;15.93;5.70;;;;;;;4.65;92.58;95864.81;5036539;28;20262;-66
2021/12/06 07:16:49;;;;;;;15.80;6.50;;;;;;;5.00;94.43;95863.00;5038056;28;20208;-65
2021/12/06 07:19:15;;;;;;;5.17;3.87;;;;;;;4.81;91.41;95871.97;5037819;28;20201;-66
2021/12/06 07:21:42;;;;;;;17.00;6.30;;;;;;;4.90;90.72;95867.47;5038174;28;20218;-66
2021/12/06 07:24:09;;;;;;;20.90;8.63;;;;;;;4.81;90.39;95879.78;5037979;28;20205;-65
2021/12/06 07:26:35;;;;;;;21.13;6.50;;;;;;;4.72;90.85;95876.28;5037577;28;20228;-67
2021/12/06 07:29:02;;;;;;;10.23;4.80;;;;;;;4.72;90.92;95888.53;5037519;28;20208;-67
2021/12/06 07:31:31;;;;;;;7.80;4.30;;;;;;;4.93;90.82;95888.03;5037101;28;20735;-67
2021/12/06 07:33:57;;;;;;;22.93;7.57;;;;;;;4.76;90.70;95890.69;5037018;28;20205;-66
2021/12/06 07:36:28;;;;;;;13.63;6.93;;;;;;;4.98;90.50;95891.03;5037965;28;20578;-66
2021/12/06 07:38:55;;;;;;;18.77;6.97;;;;;;;4.82;90.26;95897.91;5038243;28;20204;-66
2021/12/06 07:41:28;;;;;;;16.63;4.73;;;;;;;5.21;89.97;95894.78;5037297;28;20217;-67
2021/12/06 07:43:56;;;;;;;19.10;5.97;;;;;;;5.11;90.24;95895.84;5037505;28;20201;-66
2021/12/06 07:46:23;;;;;;;11.87;5.67;;;;;;;5.05;89.33;95907.75;5035809;28;20320;-67
2021/12/06 07:48:52;;;;;;;13.23;5.03;;;;;;;5.09;89.56;95903.00;5036799;28;20197;-66
2021/12/06 07:51:20;;;;;;;20.97;8.47;;;;;;;5.06;89.34;95913.78;5037065;28;20221;-66
2021/12/06 07:53:47;;;;;;;17.70;6.40;;;;;;;4.97;89.48;95912.88;5036653;28;20200;-66
2021/12/06 07:56:13;;;;;;;17.53;5.80;;;;;;;4.75;90.08;95920.38;5037245;28;21123;-65
2021/12/06 07:58:40;;;;;;;10.13;4.63;;;;;;;4.80;89.99;95922.50;5036280;28;20715;-66
2021/12/06 08:01:07;;;;;;;24.03;8.73;;;;;;;4.77;89.72;95922.81;5036926;28;20272;-66
2021/12/06 08:03:33;;;;;;;13.60;5.47;;;;;;;4.73;89.91;95921.47;5036167;28;20201;-66
2021/12/06 08:06:01;;;;;;;10.77;6.73;;;;;;;4.80;90.49;95925.13;5036954;28;20232;-66
2021/12/06 08:08:30;;;;;;;11.40;6.60;;;;;;;4.81;90.72;95930.19;5036865;28;20214;-67
2021/12/06 08:11:00;;;;;;;16.97;6.03;;;;;;;4.86;90.37;95922.72;5036793;28;20224;-65
2021/12/06 08:13:29;;;;;;;23.47;7.73;;;;;;;4.88;89.71;95929.44;5036254;28;20204;-66
2021/12/06 08:16:00;;;;;;;14.20;7.40;;;;;;;4.93;90.27;95929.81;5036995;28;20215;-67
2021/12/06 08:18:26;;;;;;;16.83;6.10;;;;;;;4.67;90.33;95935.97;5037064;28;20201;-67
2021/12/06 08:20:56;;;;;;;12.73;6.53;;;;;;;4.68;90.39;95928.94;5035832;28;20227;-67
2021/12/06 08:23:25;;;;;;;18.43;7.17;;;;;;;4.74;91.18;95936.19;5035054;28;20209;-67
2021/12/06 08:25:53;;;;;;;16.57;7.97;;;;;;;4.63;91.74;95939.81;5037086;28;20236;-66
2021/12/06 08:28:22;;;;;;;20.23;7.97;;;;;;;4.74;91.46;95939.59;5036696;28;20263;-67
2021/12/06 08:30:50;;;;;;;21.90;6.17;;;;;;;4.69;91.21;95941.03;5036110;28;20232;-66
2021/12/06 08:33:17;;;;;;;23.50;7.50;;;;;;;4.63;92.03;95944.22;5035817;28;20355;-67
2021/12/06 08:35:46;;;;;;;18.53;6.47;;;;;;;4.77;91.76;95949.72;5037447;28;20208;-67
2021/12/06 08:38:15;;;;;;;17.37;4.07;;;;;;;4.88;90.94;95950.31;5036268;28;20211;-67
2021/12/06 08:40:45;;;;;;;16.47;6.67;;;;;;;4.95;91.06;95948.78;5036601;28;20228;-67
2021/12/06 08:43:17;;;;;;;10.80;5.63;;;;;;;4.98;90.74;95943.25;5036272;28;20198;-67
2021/12/06 08:45:44;;;;;;;13.33;6.47;;;;;;;5.13;90.11;95949.56;5034700;28;20723;-67
2021/12/06 08:48:10;;;;;;;20.80;5.53;;;;;;;5.11;89.84;95953.31;5036663;28;20227;-67
2021/12/06 08:50:37;;;;;;;20.70;6.33;;;;;;;5.12;90.66;95954.97;5036920;28;20229;-67
2021/12/06 08:53:04;;;;;;;16.90;6.70;;;;;;;5.01;90.74;95963.00;5035807;28;20216;-68
2021/12/06 08:55:30;;;;;;;11.90;5.73;;;;;;;4.74;90.56;95959.66;5036415;28;20601;-67
2021/12/06 08:57:59;;;;;;;13.90;6.80;;;;;;;5.26;89.91;95957.03;5036314;28;20298;-67
2021/12/06 09:00:28;;;;;;;15.63;6.20;;;;;;;4.88;91.15;95967.78;5034847;28;20217;-67
2021/12/06 09:02:55;;;;;;;10.17;5.87;;;;;;;4.99;91.13;95952.72;5035317;28;20212;-67
2021/12/06 09:05:24;;;;;;;17.60;7.97;;;;;;;5.34;90.17;95965.72;5034353;28;20574;-66
2021/12/06 09:07:51;;;;;;;18.63;6.30;;;;;;;5.15;90.17;95965.09;5035366;28;20207;-67
2021/12/06 09:10:18;;;;;;;9.13;4.20;;;;;;;4.84;90.63;95977.69;5036107;28;20713;-67
2021/12/06 09:12:44;;;;;;;13.40;6.00;;;;;;;4.89;90.66;95970.25;5035801;28;20200;-67
2021/12/06 09:15:15;;;;;;;13.00;4.33;;;;;;;5.34;90.68;95981.41;5036096;28;20936;-67
2021/12/06 09:17:42;;;;;;;15.63;5.27;;;;;;;5.41;89.10;95979.84;5036026;28;21340;-67
2021/12/06 09:20:12;;;;;;;25.83;8.20;;;;;;;5.66;88.23;95981.63;5036557;28;20231;-67
2021/12/06 09:22:40;;;;;;;9.60;6.03;;;;;;;5.37;88.88;95994.16;5035978;28;20232;-68
2021/12/06 09:25:09;;;;;;;10.63;5.97;;;;;;;5.58;88.22;95990.25;5036326;28;20209;-68
2021/12/06 09:27:36;;;;;;;19.80;6.13;;;;;;;5.51;87.16;95993.63;5035884;28;20224;-68
2021/12/06 09:30:04;;;;;;;10.63;5.23;;;;;;;5.67;87.80;95985.91;5036345;28;20201;-68
2021/12/06 09:32:33;;;;;;;12.17;5.93;;;;;;;5.72;87.30;95978.41;5035779;28;20205;-68
2021/12/06 09:35:00;;;;;;;17.20;5.37;;;;;;;5.71;85.90;95989.84;5036736;28;20212;-67
2021/12/06 09:37:26;;;;;;;11.77;6.23;;;;;;;5.72;85.77;95978.41;5035725;28;20234;-68
2021/12/06 09:39:54;;;;;;;11.53;5.83;;;;;;;5.62;86.88;95983.72;5035068;28;20197;-68
2021/12/06 09:42:22;;;;;;;13.23;4.97;;;;;;;5.58;86.60;95984.22;5035134;28;20280;-67
2021/12/06 09:44:49;;;;;;;10.90;5.03;;;;;;;5.81;86.16;95985.38;5033178;28;20237;-67
2021/12/06 09:47:16;;;;;;;11.03;5.17;;;;;;;5.54;85.76;95983.69;5034831;28;20220;-67
2021/12/06 09:49:44;;;;;;;18.93;5.83;;;;;;;5.67;86.04;95984.09;5035778;28;20565;-68
2021/12/06 09:52:14;;;;;;;21.33;4.97;;;;;;;5.54;86.66;95982.88;5035604;28;20232;-68
2021/12/06 09:54:41;;;;;;;14.13;4.23;;;;;;;5.55;85.56;95980.09;5036212;28;20206;-67
2021/12/06 09:57:10;;;;;;;9.33;3.60;;;;;;;5.85;84.86;95982.28;5036257;28;20201;-68
2021/12/06 09:59:38;;;;;;;6.70;3.37;;;;;;;6.01;85.39;95986.78;5034440;28;20208;-68
2021/12/06 10:02:08;;;;;;;11.90;5.93;;;;;;;5.96;85.38;95989.03;5035499;28;20225;-68
2021/12/06 10:04:38;;;;;;;9.57;4.33;;;;;;;5.91;86.25;95980.88;5035132;28;20209;-68
2021/12/06 10:07:09;;;;;;;8.97;5.57;;;;;;;5.74;85.52;95986.91;5035528;28;20232;-67
2021/12/06 10:09:36;;;;;;;4.63;3.83;;;;;;;5.44;85.83;95995.19;5035568;28;20271;-67
2021/12/06 10:12:03;;;;;;;7.93;4.00;;;;;;;5.70;84.93;95994.25;5036355;28;20672;-67
2021/12/06 10:14:31;;;;;;;12.90;4.17;;;;;;;5.79;85.54;95995.16;5038456;28;20198;-68
2021/12/06 10:16:58;;;;;;;8.67;3.30;;;;;;;5.82;85.73;95997.47;5039115;28;20661;-67
2021/12/06 10:19:25;;;;;;;4.70;3.30;;;;;;;5.37;86.26;96002.00;5038908;28;20201;-67
2021/12/06 10:21:53;;;;;;;8.70;4.27;;;;;;;5.64;86.11;95989.63;5037482;28;20253;-67
2021/12/06 10:24:24;;;;;;;9.50;5.20;;;;;;;5.80;86.24;95988.94;5039160;28;20205;-67
2021/12/06 10:27:01;;;;;;;7.07;2.87;;;;;;;5.38;87.06;95989.78;5039365;28;20225;-67
2021/12/06 10:29:33;;;;;;;5.23;2.90;;;;;;;5.34;86.75;95984.00;5038824;28;20551;-67
2021/12/06 10:31:59;;;;;;;11.80;4.43;;;;;;;5.49;86.18;95979.91;5038494;28;20221;-67
2021/12/06 10:34:29;;;;;;;7.13;3.27;;;;;;;5.82;85.91;95976.56;5038912;28;20197;-67
2021/12/06 10:36:56;;;;;;;9.57;4.53;;;;;;;6.00;85.05;95978.13;5038625;28;20197;-67
2021/12/06 10:39:24;;;;;;;8.93;4.03;;;;;;;6.10;85.33;95960.53;5039012;28;20212;-68
2021/12/06 10:41:53;;;;;;;9.17;3.57;;;;;;;5.85;85.77;95963.16;5039273;28;20232;-67
2021/12/06 10:44:20;;;;;;;13.80;6.00;;;;;;;5.87;86.67;95961.19;5038314;28;20209;-67
2021/12/06 10:46:49;;;;;;;8.53;4.80;;;;;;;6.10;85.33;95958.72;5036167;28;20217;-67
2021/12/06 10:49:19;;;;;;;8.17;5.20;;;;;;;6.17;85.38;95951.06;5039548;28;20229;-67
2021/12/06 10:51:46;;;;;;;7.13;3.67;;;;;;;6.00;85.55;95959.00;5038282;28;20233;-67
2021/12/06 10:54:20;;;;;;;13.47;4.83;;;;;;;6.10;84.67;95955.28;5038318;28;20211;-68
2021/12/06 10:56:52;;;;;;;15.67;4.30;;;;;;;6.33;83.49;95953.75;5039174;28;20581;-67
2021/12/06 10:59:23;;;;;;;11.70;4.60;;;;;;;6.18;85.31;95950.91;5038400;28;20209;-67
2021/12/06 11:01:52;;;;;;;8.77;3.90;;;;;;;6.35;83.74;95955.25;5038120;28;20728;-67
2021/12/06 11:04:22;;;;;;;4.47;2.43;;;;;;;6.41;83.96;95954.59;5038680;28;20710;-69
2021/12/06 11:06:51;;;;;;;6.63;2.73;;;;;;;6.10;84.85;95956.09;5038632;28;20232;-69
2021/12/06 11:09:20;;;;;;;5.13;2.20;;;;;;;5.75;84.85;95965.88;5038300;28;20220;-67
2021/12/06 11:11:52;;;;;;;3.60;2.77;;;;;;;6.13;84.30;95970.66;5038169;28;20653;-67
2021/12/06 11:14:22;;;;;;;6.40;3.03;;;;;;;6.16;84.26;95970.34;5037707;28;20205;-67
2021/12/06 11:16:52;;;;;;;1.73;1.60;;;;;;;6.09;84.25;95969.34;5036683;28;20204;-67
2021/12/06 11:19:21;;;;;;;3.13;2.23;;;;;;;5.93;85.04;95978.91;5035410;28;20198;-66
2021/12/06 11:21:50;;;;;;;5.97;2.67;;;;;;;5.89;84.71;95972.34;5035105;28;20221;-67
2021/12/06 11:24:21;;;;;;;2.93;2.13;;;;;;;6.12;84.41;95969.84;5035037;28;20198;-67
2021/12/06 11:26:58;;;;;;;1.90;1.73;;;;;;;6.25;83.47;95959.78;5035756;28;20225;-67
2021/12/06 11:29:28;;;;;;;7.03;2.90;;;;;;;6.33;83.06;95956.38;5035523;28;20576;-68
2021/12/06 11:32:02;;;;;;;9.87;3.40;;;;;;;6.18;82.56;95960.56;5034925;28;20263;-67
2021/12/06 11:34:32;;;;;;;5.23;2.90;;;;;;;6.31;83.15;95956.53;5036142;28;20327;-67
2021/12/06 11:36:59;;;;;;;5.73;2.90;;;;;;;6.06;82.91;95960.00;5037616;28;20197;-67
2021/12/06 11:39:27;;;;;;;6.33;3.77;;;;;;;6.27;82.76;95963.03;5037302;28;20205;-67
2021/12/06 11:41:58;;;;;;;3.63;2.70;;;;;;;6.29;83.14;95961.09;5037137;28;20213;-67
2021/12/06 11:44:29;;;;;;;2.43;2.17;;;;;;;6.36;83.85;95964.69;5036749;28;20201;-67
2021/12/06 11:46:59;;;;;;;4.03;1.97;;;;;;;6.50;82.65;95961.47;5033796;28;20225;-67
2021/12/06 11:49:29;;;;;;;4.63;2.07;;;;;;;6.38;82.70;95967.19;5037147;28;20209;-67
2021/12/06 11:51:56;;;;;;;5.70;2.57;;;;;;;6.05;84.03;95960.97;5037292;28;20260;-68